Tiempo atmosférico en la estación meteorológica de Cabo Vilan, A Coruña (50 m.)



Fecha
DESCASC
Temp. máxima en grados centígrados (hora)
DESCASC
Temp. mínima en grados centígrados (hora)
DESCASC
Temp. media en grados centígrados
DESCASC
Racha de viento máxima en m/sg (hora)
DESCASC
Velocidad máxima media en intervalos de 10 minutos(hora)
DESCASC
Precipitaciones diarias en mm
DESCASC
Precipitaciones de 00:00 a 06:00 en mm
DESCASC
Precipitaciones de 06:00 a 12:00 en mm
DESCASC
Precipitaciones de 12:00 a 18:00 en mm
DESCASC
Precipitaciones de 18:00 a 24:00 en mm
DESCASC
18-10-2018 16 (14:50) 13.1 (00:10) 14.6 20.83 (08:00) 17.5 (08:00) 0.2 0.2 0 0 0
17-10-2018 14.1 (10:50) 11.9 (07:40) 13 21.39 (21:10) 17.5 (21:10) 19.8 0 2.2 10.3 7.3
16-10-2018 17 (14:40) 11.9 (08:30) 14.4 6.11 (18:10) 5 (15:20) 0 0 0 0 0
15-10-2018 18.7 (16:10) 12.5 (01:20) 15.6 24.72 (04:20) 16.11 (03:10) 20.2 10.7 9.5 0 0
14-10-2018 16.5 (15:20) 11.6 (00:00) 14.1 18.61 (23:59) 12.22 (23:59) 7.3 7.3 0 0 0
13-10-2018 20.2 (13:30) 12.1 (00:00) 16.2 23.89 (06:00) 15.83 (10:00) 14.8 0.1 0 1.2 13.5
12-10-2018 18.1 (22:40) 15.9 (00:00) 17 25 (06:30) 17.22 (12:10) 10.6 0 2.9 2 5.7
11-10-2018 18.9 (16:40) 13.1 (08:40) 16 24.17 (01:30) 16.67 (01:20) 27.4 24.2 3.2 0 0
10-10-2018 -- (--) -- (--) -- -- (--) -- (--) -- 0 0 -- --
09-10-2018 21.2 (15:30) 13.6 (23:20) 17.4 8.61 (23:10) 5.28 (05:40) 0 0 0 0 0
08-10-2018 18.1 (17:40) 11.1 (08:40) 14.6 17.5 (01:10) 11.39 (01:00) 0 0 0 0 0
07-10-2018 15.7 (14:40) 12.8 (07:50) 14.3 17.78 (20:00) 14.72 (19:30) 0 0 0 0 0
06-10-2018 16.2 (14:00) 12.6 (10:40) 14.4 15.56 (10:00) 10.56 (10:00) 1.3 0 1.2 0 0.1
05-10-2018 20.4 (15:30) 11.8 (09:10) 16.1 8.06 (14:30) 6.39 (14:20) 0 0 0 0 0
04-10-2018 23.3 (19:30) 15.6 (00:00) 19.4 5.56 (14:00) 4.44 (13:50) 0 0 0 0 0
03-10-2018 26.1 (14:10) 13.2 (00:00) 19.7 7.5 (06:10) 5.28 (06:30) 0 0 0 0 0
02-10-2018 17 (16:50) 12.7 (00:00) 14.8 19.44 (03:10) 12.78 (13:30) 0 0 0 0 0
01-10-2018 16.6 (14:10) 14.4 (00:00) 15.5 21.94 (19:20) 17.78 (19:30) 0 0 0 0 0
30-09-2018 17.5 (14:10) 13 (00:00) 15.3 18.33 (13:20) 14.44 (22:30) 0 0 0 0 0
29-09-2018 16.3 (14:10) 13 (00:00) 14.6 5 (07:40) 3.61 (00:10) 0.1 0 0.1 0 0
28-09-2018 18.6 (15:50) 14.2 (00:00) 16.4 7.5 (17:30) 6.39 (17:20) 0 0 0 0 0
27-09-2018 21.7 (12:30) 15.2 (00:00) 18.5 10 (15:50) 7.78 (16:00) 0 0 0 0 0
26-09-2018 26 (17:50) 14.5 (00:00) 20.3 12.22 (01:40) 7.78 (00:50) 0 0 0 0 0
25-09-2018 18 (13:00) 14.1 (00:00) 16.1 20.83 (00:30) 13.61 (16:30) 0 0 0 0 0
24-09-2018 17.1 (00:40) 14.8 (00:00) 16 24.17 (20:10) 19.44 (20:20) 0.1 0 0.1 0 0
23-09-2018 21.4 (15:20) 16.6 (21:30) 19 15.83 (21:50) 12.22 (21:30) 0 0 0 0 0
22-09-2018 21.8 (17:20) 15.6 (07:50) 18.7 5 (04:00) 3.89 (15:00) 0.1 0 0.1 0 0
21-09-2018 19.4 (15:10) 16 (10:40) 17.7 10 (00:10) 7.5 (02:40) 7.1 0 6.7 0.2 0.2
20-09-2018 22.4 (15:40) 13.5 (05:20) 17.9 11.94 (16:40) 9.72 (16:40) 0.1 0 0.1 0 0

Gráficas

Temp. máximas Temp. mínimas Temp. medias Precipitaciones Rachas de viento máximas Velocidades máximas media en intervalos de 10 minutos

Datos horarios

Fecha y hora oficial Temperatura (ºC) Velocidad del viento (km/h) Dirección del viento Racha (km/h) Dirección de racha Precipitación (mm) Presión (hPa) Tendencia (hPa) Humedad (%)
2018-10-19 23:00:00 15.4 49 Nordeste 68 Nordeste 0 -- -- 96
2018-10-19 22:00:00 15.5 53 Nordeste 72 Nordeste 0 -- -- 96
2018-10-19 21:00:00 15.2 55 Nordeste 75 Nordeste 0 -- -- 96
2018-10-19 20:00:00 15.6 54 Nordeste 74 Nordeste 0 -- -- 95
2018-10-19 19:00:00 15.7 56 Nordeste 80 Nordeste 0 -- -- 96
2018-10-19 18:00:00 15.6 59 Nordeste 78 Nordeste 0 -- -- 94
2018-10-19 17:00:00 16 63 Nordeste 78 Nordeste 0 -- -- 94
2018-10-19 16:00:00 16 60 Nordeste 73 Nordeste 0 -- -- 94
2018-10-19 15:00:00 16 51 Nordeste 73 Nordeste 0 -- -- 94
2018-10-19 14:00:00 15.8 58 Nordeste 69 Nordeste 0 -- -- 96
2018-10-19 13:00:00 15.9 54 Nordeste 68 Nordeste 0 -- -- 96
2018-10-19 12:00:00 15.4 48 Nordeste 62 Nordeste 0 -- -- 96
2018-10-19 11:00:00 15.3 44 Nordeste 55 Nordeste 0 -- -- 96
2018-10-19 10:00:00 15.2 49 Nordeste 59 Nordeste 0 -- -- 96
2018-10-19 09:00:00 15 40 Nordeste 47 Nordeste 0 -- -- 96
2018-10-19 08:00:00 14.7 41 Nordeste 49 Nordeste 0 -- -- 96
2018-10-19 07:00:00 14.6 44 Nordeste 53 Nordeste 0 -- -- 96
2018-10-19 06:00:00 14.8 39 Nordeste 52 Nordeste 0 -- -- 96
2018-10-19 05:00:00 14.9 39 Nordeste 56 Nordeste 0 -- -- 96
2018-10-19 04:00:00 14.8 42 Norte 57 Norte 0 -- -- 96
2018-10-19 03:00:00 14.9 49 Norte 57 Nordeste 0 -- -- 96
2018-10-19 02:00:00 14.7 40 Nordeste 49 Nordeste 0 -- -- 96
2018-10-19 01:00:00 14.8 45 Nordeste 57 Nordeste 0 -- -- 96
2018-10-19 00:00:00 14.7 47 Nordeste 55 Nordeste 0 -- -- 96
2018-10-18 23:00:00 14.8 47 Nordeste 60 Nordeste 0 -- -- 96
2018-10-18 22:00:00 14.8 50 Nordeste 64 Nordeste 0 -- -- 96
2018-10-18 21:00:00 14.7 45 Nordeste 59 Nordeste 0 -- -- 96
2018-10-18 20:00:00 14.7 49 Nordeste 59 Nordeste 0 -- -- 94
2018-10-18 19:00:00 14.7 45 Nordeste 57 Nordeste 0 -- -- 94
2018-10-18 18:00:00 15 47 Nordeste 62 Nordeste 0 -- -- 93
2018-10-18 17:00:00 15 51 Nordeste 60 Nordeste 0 -- -- 92
2018-10-18 16:00:00 15.6 46 Nordeste 58 Nordeste 0 -- -- 90
2018-10-18 15:00:00 15.6 50 Nordeste 65 Nordeste 0 -- -- 87
2018-10-18 14:00:00 15.7 47 Nordeste 60 Nordeste 0 -- -- 87
2018-10-18 13:00:00 15.6 46 Nordeste 57 Nordeste 0 -- -- 90
2018-10-18 12:00:00 15.1 48 Nordeste 58 Nordeste 0 -- -- 92
2018-10-18 11:00:00 14.9 47 Nordeste 63 Nordeste 0 -- -- 92
2018-10-18 10:00:00 14.9 45 Nordeste 69 Nordeste 0 -- -- 92
2018-10-18 09:00:00 14.7 47 Nordeste 73 Nordeste 0 -- -- 93
2018-10-18 08:00:00 14.6 63 Nordeste 75 Nordeste 0 -- -- 96
2018-10-18 07:00:00 14.3 55 Nordeste 69 Nordeste 0 -- -- 97
2018-10-18 06:00:00 14.4 47 Nordeste 59 Nordeste 0 -- -- 96
2018-10-18 05:00:00 14.4 41 Nordeste 49 Nordeste 0 -- -- 96
2018-10-18 04:00:00 14.4 36 Nordeste 51 Norte 0 -- -- 97
2018-10-18 03:00:00 14.2 45 Norte 55 Norte 0 -- -- 97
2018-10-18 02:00:00 13.8 46 Norte 60 Norte 0 -- -- 97
2018-10-18 01:00:00 13.6 47 Nordeste 65 Nordeste 0.2 -- -- 97
2018-10-18 00:00:00 13.2 56 Nordeste 70 Nordeste 0.3 -- -- 97
2018-10-17 23:00:00 13.1 53 Norte 68 Norte 0.6 -- -- 97
2018-10-17 22:00:00 12.8 53 Norte 77 Nordeste 3.2 -- -- 97
2018-10-17 21:00:00 12.8 60 Norte 75 Norte 1.7 -- -- 97
2018-10-17 20:00:00 13.2 52 Norte 63 Norte 1.4 -- -- 96
2018-10-17 19:00:00 13.3 26 Norte 43 Norte 0.1 -- -- 96
2018-10-17 18:00:00 13.3 29 Norte 42 Norte 0 -- -- 96
2018-10-17 17:00:00 13.6 33 Norte 42 Norte 0.1 -- -- 96
2018-10-17 16:00:00 13.4 29 Norte 42 Norte 0.1 -- -- 96
2018-10-17 15:00:00 12.9 39 Norte 51 Norte 3 -- -- 96
2018-10-17 14:00:00 12.9 38 Norte 48 Norte 3.5 -- -- 96
2018-10-17 13:00:00 13.8 10 Sudoeste 19 Sudoeste 3.6 -- -- 96
2018-10-17 12:00:00 13.9 12 Sudoeste 21 Sudoeste 2.2 -- -- 96
2018-10-17 11:00:00 14 8 Sudoeste 14 Sudoeste 0 -- -- 96
2018-10-17 10:00:00 13.1 8 Sur 10 Sudeste 0 -- -- 96
2018-10-17 09:00:00 12.8 5 Sudeste 13 Sudeste 0 -- -- 96
2018-10-17 08:00:00 12.5 7 Este 13 Este 0 -- -- 96
2018-10-17 07:00:00 12.9 0 Calma 6 Nordeste 0 -- -- 96
2018-10-17 06:00:00 12.9 0 Calma 6 Oeste 0 -- -- 96
2018-10-17 05:00:00 12.6 2 Este 8 Este 0 -- -- 96
2018-10-17 04:00:00 12.5 6 Este 15 Este 0 -- -- 96
2018-10-17 03:00:00 12.6 11 Este 20 Este 0 -- -- 96
2018-10-17 02:00:00 12.6 8 Este 12 Este 0 -- -- 96
2018-10-17 01:00:00 12.6 7 Este 15 Este 0 -- -- 96
2018-10-17 00:00:00 12.9 9 Este 17 Nordeste 0 -- -- 96
2018-10-16 23:00:00 14.1 10 Nordeste 19 Nordeste 0 -- -- 96
2018-10-16 22:00:00 14 9 Nordeste 14 Nordeste 0 -- -- 95
2018-10-16 21:00:00 13.9 12 Este 18 Nordeste 0 -- -- 94
2018-10-16 20:00:00 14.5 16 Nordeste 20 Nordeste 0 -- -- 94
2018-10-16 19:00:00 15.5 16 Nordeste 22 Nordeste 0 -- -- 93
2018-10-16 18:00:00 16 16 Nordeste 19 Nordeste 0 -- -- 90
2018-10-16 17:00:00 16.6 12 Nordeste 19 Nordeste 0 -- -- 89
2018-10-16 16:00:00 16.7 15 Nordeste 20 Nordeste 0 -- -- 85
2018-10-16 15:00:00 16.7 15 Norte 18 Norte 0 -- -- 83
2018-10-16 14:00:00 16.6 12 Norte 18 Nordeste 0 -- -- 86
2018-10-16 13:00:00 16.1 15 Norte 18 Norte 0 -- -- 86
2018-10-16 12:00:00 16.1 13 Nordeste 16 Nordeste 0 -- -- 88
2018-10-16 11:00:00 14.9 8 Nordeste 12 Nordeste 0 -- -- 93
2018-10-16 10:00:00 13.7 5 Nordeste 9 Nordeste 0 -- -- 94
2018-10-16 09:00:00 12.1 6 Nordeste 15 Este 0 -- -- 94
2018-10-16 08:00:00 12.3 11 Este 15 Este 0 -- -- 94
2018-10-16 07:00:00 12.6 12 Este 16 Este 0 -- -- 94
2018-10-16 06:00:00 12.7 7 Nordeste 10 Nordeste 0 -- -- 94
2018-10-16 05:00:00 13.3 4 Este 10 Este 0 -- -- 93
2018-10-16 04:00:00 13.5 0 Calma 6 Este 0 -- -- 93
2018-10-16 03:00:00 13.5 3 Nordeste 6 Nordeste 0 -- -- 93
2018-10-16 02:00:00 13.7 6 Nordeste 14 Sudeste 0 -- -- 93
2018-10-16 01:00:00 14.4 12 Sudeste 16 Sudeste 0 -- -- 92
2018-10-16 00:00:00 14.1 12 Sudeste 14 Sudeste 0 -- -- 93
2018-10-15 23:00:00 14 0 Calma 8 Nordeste 0 -- -- 93
2018-10-15 22:00:00 14.1 7 Nordeste 20 Este 0 -- -- 92
2018-10-15 21:00:00 14.7 17 Este 28 Nordeste 0 -- -- 84
2018-10-15 20:00:00 15.3 16 Nordeste 34 Norte 0 -- -- 81
2018-10-15 19:00:00 16.2 22 Nordeste -- -- -- -- -- 82
2018-10-15 18:00:00 15.9 22 Nordeste 31 Nordeste 0 -- -- 88
2018-10-15 17:00:00 17 16 Nordeste 22 Nordeste 0 -- -- 86
2018-10-15 16:00:00 18.5 6 Sur 15 Este 0 -- -- 86
2018-10-15 15:00:00 17.7 0 Calma 14 Sudeste 0 -- -- 90
2018-10-15 14:00:00 17.4 5 Norte 19 Sudeste 0 -- -- 94
2018-10-15 13:00:00 17.7 10 Sudeste 26 Sur 0 -- -- 96
2018-10-15 12:00:00 15.9 17 Sur 30 Sur 0 -- -- 96
2018-10-15 11:00:00 15 19 Sur 27 Sur 0.1 -- -- 96
2018-10-15 10:00:00 14.5 17 Sur 29 Sur 0.3 -- -- 96
2018-10-15 09:00:00 14.2 19 Sur 39 Sur 2.2 -- -- 96
2018-10-15 08:00:00 14.2 29 Sudoeste 44 Sur 5.4 -- -- 96
2018-10-15 07:00:00 14.4 31 Sudoeste 51 Sudoeste 1.5 -- -- 96
2018-10-15 06:00:00 14.2 29 Sudoeste 58 Sudoeste 0.2 -- -- 96
2018-10-15 05:00:00 13.7 39 Sur 89 Sur 6 -- -- 96
2018-10-15 04:00:00 12.9 51 Sur 87 Sur 2.3 -- -- 96
2018-10-15 03:00:00 12.9 55 Sur 82 Sur 1.3 -- -- 96
2018-10-15 02:00:00 12.7 44 Sur 71 Sur 0.8 -- -- 94
2018-10-15 01:00:00 12.7 45 Sur 69 Sur 0.1 -- -- 93
2018-10-15 00:00:00 13.4 44 Sur 67 Sur 0 -- -- 79
2018-10-14 23:00:00 13.6 32 Sur 45 Sur 0 -- -- 72
2018-10-14 22:00:00 13.4 29 Sudoeste 87 Sur 0 -- -- 79
2018-10-14 21:00:00 13.4 22 Sur 30 Sur 0 -- -- 81
2018-10-14 20:00:00 13.5 19 Sur 24 Sur 0 -- -- 77
2018-10-14 19:00:00 15 13 Sur 17 Sur 0 -- -- 70
2018-10-14 18:00:00 15.6 9 Sudoeste 13 Sudoeste 0 -- -- 65
2018-10-14 17:00:00 16 6 Oeste 16 Noroeste 0 -- -- 70
2018-10-14 16:00:00 15.9 10 Noroeste 22 Noroeste 0 -- -- 71
2018-10-14 15:00:00 15.6 13 Noroeste 27 Noroeste 0 -- -- 71
2018-10-14 14:00:00 15.7 17 Noroeste 28 Noroeste 0 -- -- 72
2018-10-14 13:00:00 15 18 Noroeste 39 Noroeste 0 -- -- 74
2018-10-14 12:00:00 14.2 28 Norte 38 Norte 0 -- -- 75
2018-10-14 11:00:00 13.5 32 Norte 49 Noroeste 0 -- -- 87
2018-10-14 10:00:00 13 26 Noroeste 51 Noroeste 0 -- -- 91
2018-10-14 09:00:00 12.9 33 Noroeste 48 Norte 0 -- -- 91
2018-10-14 08:00:00 12.9 33 Norte 50 Norte 0 -- -- 92
2018-10-14 07:00:00 12.9 35 Norte 52 Norte 0 -- -- 91
2018-10-14 06:00:00 12.1 33 Noroeste 57 Noroeste 1 -- -- 93
2018-10-14 05:00:00 12.8 28 Noroeste 48 Noroeste 0 -- -- 90
2018-10-14 04:00:00 12.6 28 Noroeste 50 Noroeste 0.5 -- -- 91
2018-10-14 03:00:00 12 16 Noroeste 33 Noroeste 0.4 -- -- 96
2018-10-14 02:00:00 12.1 15 Nordeste 21 Nordeste 3.1 -- -- 96
2018-10-14 01:00:00 11.9 17 Norte 23 Norte 2.3 -- -- 96
2018-10-14 00:00:00 12.3 17 Norte 24 Norte 2.4 -- -- 96
2018-10-13 23:00:00 12.4 15 Norte 20 Norte 4.7 -- -- 96
2018-10-13 22:00:00 12.4 4 Norte 14 Este 1.8 -- -- 94
2018-10-13 21:00:00 12.4 8 Nordeste 17 Norte 2.4 -- -- 94
2018-10-13 20:00:00 12.8 15 Norte 25 Noroeste 1.3 -- -- 94
2018-10-13 19:00:00 13.2 16 Noroeste 30 Noroeste 0.9 -- -- 94
2018-10-13 18:00:00 13.7 25 Noroeste 48 Sur 1 -- -- 94
2018-10-13 17:00:00 17.8 44 Sur 68 Sur 0.2 -- -- 92
2018-10-13 16:00:00 18.7 49 Sur 71 Sur 0 -- -- 84
2018-10-13 15:00:00 19.3 54 Sur 78 Sur 0 -- -- 83
2018-10-13 14:00:00 19.8 51 Sur 76 Sur 0 -- -- 82
2018-10-13 13:00:00 19.8 48 Sur 72 Sur 0 -- -- 86
2018-10-13 12:00:00 18.7 52 Sur 76 Sur 0 -- -- 90
2018-10-13 11:00:00 18.3 51 Sur 77 Sur 0 -- -- 94
2018-10-13 10:00:00 18.3 57 Sur 80 Sur 0 -- -- 94
2018-10-13 09:00:00 17.6 53 Sur 79 Sur 0 -- -- 94
2018-10-13 08:00:00 17.4 53 Sur 83 Sur 0 -- -- 94
2018-10-13 07:00:00 17.2 48 Sur 78 Sur 0 -- -- 94
2018-10-13 06:00:00 17.3 54 Sur 86 Sur 0 -- -- 94
2018-10-13 05:00:00 17.9 53 Sur 78 Sur 0 -- -- 94
2018-10-13 04:00:00 18.2 53 Sur 78 Sur 0 -- -- 94
2018-10-13 03:00:00 18 51 Sur 73 Sur 0 -- -- 94
2018-10-13 02:00:00 17.9 52 Sur 80 Sur 0 -- -- 96
2018-10-13 01:00:00 18 51 Sur 79 Sur 0.1 -- -- 96
2018-10-13 00:00:00 18 51 Sur 89 Sur 1.2 -- -- 96
2018-10-12 23:00:00 17.9 55 Sur 88 Sur 0.1 -- -- 96
2018-10-12 22:00:00 18 54 Sur 79 Sur 3.7 -- -- 96
2018-10-12 21:00:00 17.6 54 Sur 76 Sur 0 -- -- 96
2018-10-12 20:00:00 17.1 53 Sur 75 Sur 0.1 -- -- 96
2018-10-12 19:00:00 16.9 55 Sur 81 Sur 0.6 -- -- 96
2018-10-12 18:00:00 17 54 Sur 77 Sur 0.8 -- -- 96
2018-10-12 17:00:00 17 50 Sur 78 Sur 0.3 -- -- 96
2018-10-12 16:00:00 16.7 55 Sur 85 Sur 0.1 -- -- 96
2018-10-12 15:00:00 16.8 55 Sur 84 Sur 0.1 -- -- 96
2018-10-12 14:00:00 16.7 55 Sur 86 Sur 0.3 -- -- 96
2018-10-12 13:00:00 16.8 56 Sur 89 Sur 0.4 -- -- 96
2018-10-12 12:00:00 16.6 58 Sur 85 Sur 1.6 -- -- 96
2018-10-12 11:00:00 16.4 59 Sur 87 Sur 0.4 -- -- 96
2018-10-12 10:00:00 16.2 55 Sur 84 Sur 0.1 -- -- 96
2018-10-12 09:00:00 16.4 54 Sur 89 Sur 0.7 -- -- 96
2018-10-12 08:00:00 16.2 57 Sur 81 Sur 0.1 -- -- 94
2018-10-12 07:00:00 16.9 58 Sur 90 Sur 0 -- -- 91
2018-10-12 06:00:00 16.8 55 Sur 78 Sur 0 -- -- 90
2018-10-12 05:00:00 16.4 52 Sur 77 Sur 0 -- -- 88
2018-10-12 04:00:00 16.6 53 Sur 79 Sur 0 -- -- 87
2018-10-12 03:00:00 16.6 54 Sur 84 Sur 0 -- -- 87
2018-10-12 02:00:00 16.4 56 Sur 79 Sur 0 -- -- 87
2018-10-12 01:00:00 16.4 56 Sur 79 Sur 0 -- -- 87
2018-10-12 00:00:00 16.3 55 Sur 86 Sur 0 -- -- 87
2018-10-11 23:00:00 15.8 52 Sur 69 Sur 0 -- -- 87
2018-10-11 22:00:00 15.7 45 Sur 66 Sur 0 -- -- 89
2018-10-11 21:00:00 16 48 Sur 69 Sur 0 -- -- 84
2018-10-11 20:00:00 16 46 Sur 60 Sur 0 -- -- 81
2018-10-11 19:00:00 16.3 40 Sur 63 Sur 0 -- -- 74
2018-10-11 18:00:00 17.1 37 Sur 57 Sur 0 -- -- 68
2018-10-11 17:00:00 18.3 35 Sur 47 Sudoeste 0 -- -- 64
2018-10-11 16:00:00 18.2 35 Sudoeste 50 Sudoeste 0 -- -- 70
2018-10-11 15:00:00 17.4 31 Sudoeste 43 Sudoeste 0 -- -- 74
2018-10-11 14:00:00 16.8 30 Sudoeste 42 Sudoeste 0 -- -- 79
2018-10-11 13:00:00 16.5 29 Sudoeste 39 Sudoeste 0 -- -- 80
2018-10-11 12:00:00 15 31 Sudoeste 39 Sudoeste 0 -- -- 92
2018-10-11 11:00:00 14.4 28 Sudoeste 44 Sudoeste 0 -- -- 96
2018-10-11 10:00:00 14.4 31 Sudoeste 40 Sudoeste 0 -- -- 96
2018-10-11 09:00:00 13.4 25 Sudoeste 30 Sur 0 -- -- 96
2018-10-11 08:00:00 13.8 23 Sudoeste 37 Sudoeste 0.2 -- -- 96
2018-10-11 07:00:00 14.6 21 Sudoeste 29 Sur 3 -- -- 96
2018-10-11 06:00:00 14.6 17 Sur 25 Sur 0.1 -- -- 96
2018-10-11 05:00:00 14.3 18 Sur 28 Sur 0 -- -- 96
2018-10-11 04:00:00 14.4 23 Sudoeste 30 Sudoeste 0 -- -- 96
2018-10-11 03:00:00 14.1 27 Sudoeste 80 Sudoeste 9.3 -- -- 96
2018-10-11 02:00:00 15.3 44 Sur 87 Sur 10.7 -- -- 96
2018-10-11 01:00:00 15.7 55 Sur 79 Sur 4.1 -- -- 96
2018-10-11 00:00:00 15.9 42 Sur 79 Sur 1.5 -- -- 94
2018-10-10 23:00:00 16.6 46 Sur 60 Sur 0 -- -- 89
2018-10-10 22:00:00 16.7 40 Sur 62 Sur 0 -- -- 87
2018-10-10 21:00:00 16.3 44 Sur 64 Sur 0 -- -- 87
2018-10-10 20:00:00 16.7 40 Sur -- -- -- -- -- 87
2018-10-10 19:00:00 -- -- -- -- -- -- -- -- --
2018-10-10 18:00:00 -- -- -- -- -- -- -- -- --
2018-10-10 17:00:00 -- -- -- -- -- -- -- -- --
2018-10-10 16:00:00 18.6 35 Sur 52 Sur 0 -- -- 59
2018-10-10 15:00:00 20.2 32 Sur 44 Sur 0 -- -- 51
2018-10-10 14:00:00 20.5 24 Sur 39 Sur 0 -- -- 51
2018-10-10 13:00:00 19.9 27 Sur 39 Sur 0 -- -- 50
2018-10-10 12:00:00 19.2 23 Sudoeste 33 Sur 0 -- -- 54
2018-10-10 11:00:00 17.1 17 Sur 23 Sur 0 -- -- 61
2018-10-10 10:00:00 15.2 13 Sur 17 Sur 0 -- -- 70
2018-10-10 09:00:00 14.1 17 Sur 28 Sur 0 -- -- 70
2018-10-10 08:00:00 13.9 16 Sur 21 Sur 0 -- -- 70
2018-10-10 07:00:00 13.1 18 Sudoeste 23 Sudoeste 0 -- -- 70
2018-10-10 06:00:00 16.8 12 Sur 15 Sur 0 -- -- 48
2018-10-10 05:00:00 16.4 12 Sur 19 Sudeste 0 -- -- 50
2018-10-10 04:00:00 15.4 14 Sudeste 19 Sudeste 0 -- -- 50
2018-10-10 03:00:00 15.5 13 Sudeste 18 Sudeste 0 -- -- 51
2018-10-10 02:00:00 15.4 11 Sur 13 Sur 0 -- -- 53
2018-10-10 01:00:00 14.1 3 Sur 12 Sudeste 0 -- -- 60
2018-10-10 00:00:00 14.3 12 Sudeste 31 Sudeste 0 -- -- 62
2018-10-09 23:00:00 14 8 Sudeste 12 Sudeste 0 -- -- 68
2018-10-09 22:00:00 14.1 3 Sudeste 8 Sudeste 0 -- -- 77
2018-10-09 21:00:00 15 3 Sur 4 Sur 0 -- -- 70
2018-10-09 20:00:00 17 0 Calma 7 Sudoeste 0 -- -- 56
2018-10-09 19:00:00 19.4 4 Sudoeste 9 Oeste 0 -- -- 45
2018-10-09 18:00:00 20 2 Noroeste 8 Oeste 0 -- -- 44
2018-10-09 17:00:00 19.5 3 Norte 11 Noroeste 0 -- -- 45
2018-10-09 16:00:00 20.8 5 Oeste 13 Sudoeste 0 -- -- 42
2018-10-09 15:00:00 21 8 Sudoeste 13 Sudoeste 0 -- -- 42
2018-10-09 14:00:00 20.7 8 Oeste 13 Oeste 0 -- -- 45
2018-10-09 13:00:00 20.3 5 Sudoeste 10 Sudoeste 0 -- -- 47
2018-10-09 12:00:00 19.2 4 Sudoeste 9 Sudoeste 0 -- -- 52
2018-10-09 11:00:00 17.8 4 Sudoeste 6 Sudoeste 0 -- -- 53
2018-10-09 10:00:00 16.6 0 Calma 13 Sudeste 0 -- -- 57
2018-10-09 09:00:00 15.4 11 Sur 18 Sudeste 0 -- -- 58
2018-10-09 08:00:00 15.1 13 Sur 20 Sudeste 0 -- -- 61
2018-10-09 07:00:00 14.7 17 Sudeste 21 Sudeste 0 -- -- 64
2018-10-09 06:00:00 14.3 17 Sudeste 21 Este 0 -- -- 68
2018-10-09 05:00:00 14 18 Sudeste 22 Sudeste 0 -- -- 72
2018-10-09 04:00:00 14 16 Sudeste 19 Este 0 -- -- 72
2018-10-09 03:00:00 14.5 6 Sudeste 10 Sudeste 0 -- -- 74
2018-10-09 02:00:00 14 3 Nordeste 8 Sudeste 0 -- -- 80
2018-10-09 01:00:00 15 6 Sudeste 8 Sudeste 0 -- -- 76
2018-10-09 00:00:00 14.3 6 Este 10 Este 0 -- -- 80
2018-10-08 23:00:00 13.9 5 Este 12 Nordeste 0 -- -- 85
2018-10-08 22:00:00 14 5 Norte 11 Nordeste 0 -- -- 84
2018-10-08 21:00:00 14.6 6 Nordeste 15 Nordeste 0 -- -- 78
2018-10-08 20:00:00 15.4 12 Nordeste 15 Nordeste 0 -- -- 77
2018-10-08 19:00:00 16.1 14 Nordeste 23 Nordeste 0 -- -- 73
2018-10-08 18:00:00 17.4 14 Nordeste 26 Nordeste 0 -- -- 65
2018-10-08 17:00:00 17.6 23 Nordeste 34 Nordeste 0 -- -- 62
2018-10-08 16:00:00 16.8 30 Nordeste 40 Nordeste 0 -- -- 62
2018-10-08 15:00:00 16.3 31 Nordeste 37 Nordeste 0 -- -- 60
2018-10-08 14:00:00 16.3 25 Nordeste 31 Nordeste 0 -- -- 59
2018-10-08 13:00:00 16 23 Nordeste 32 Nordeste 0 -- -- 57
2018-10-08 12:00:00 16 15 Nordeste 27 Nordeste 0 -- -- 55
2018-10-08 11:00:00 14.6 14 Nordeste 32 Nordeste 0 -- -- 54
2018-10-08 10:00:00 12.6 15 Este 38 Nordeste 0 -- -- 59
2018-10-08 09:00:00 11.3 27 Nordeste 36 Nordeste 0 -- -- 61
2018-10-08 08:00:00 11.4 19 Nordeste 42 Nordeste 0 -- -- 62
2018-10-08 07:00:00 11.6 22 Nordeste 36 Nordeste 0 -- -- 64
2018-10-08 06:00:00 11.6 23 Nordeste 45 Nordeste 0 -- -- 65
2018-10-08 05:00:00 11.7 22 Nordeste 37 Nordeste 0 -- -- 65
2018-10-08 04:00:00 11.7 23 Nordeste 35 Nordeste 0 -- -- 66
2018-10-08 03:00:00 12 26 Nordeste 53 Nordeste 0 -- -- 62
2018-10-08 02:00:00 12.6 33 Nordeste 63 Nordeste 0 -- -- 59
2018-10-08 01:00:00 13.2 41 Nordeste 60 Nordeste 0 -- -- 55
2018-10-08 00:00:00 13.2 34 Nordeste 58 Nordeste 0 -- -- 55
2018-10-07 23:00:00 13.4 36 Nordeste 57 Nordeste 0 -- -- 54
2018-10-07 22:00:00 13.6 35 Nordeste 55 Nordeste 0 -- -- 55
2018-10-07 21:00:00 13.5 41 Nordeste 58 Nordeste 0 -- -- 70
2018-10-07 20:00:00 13.8 48 Nordeste 64 Nordeste 0 -- -- 64
2018-10-07 19:00:00 14.3 51 Nordeste 63 Nordeste 0 -- -- 64
2018-10-07 18:00:00 14.6 49 Nordeste 56 Nordeste 0 -- -- 68
2018-10-07 17:00:00 15.1 45 Nordeste 55 Nordeste 0 -- -- 70
2018-10-07 16:00:00 15.5 39 Nordeste 48 Nordeste 0 -- -- 71
2018-10-07 15:00:00 15.6 36 Nordeste 46 Nordeste 0 -- -- 70
2018-10-07 14:00:00 15.3 37 Nordeste 46 Nordeste 0 -- -- 70
2018-10-07 13:00:00 15.2 35 Nordeste 45 Nordeste 0 -- -- 70
2018-10-07 12:00:00 15.1 31 Nordeste 40 Nordeste 0 -- -- 71
2018-10-07 11:00:00 14.3 32 Nordeste 39 Nordeste 0 -- -- 71
2018-10-07 10:00:00 13.7 35 Nordeste 44 Nordeste 0 -- -- 79
2018-10-07 09:00:00 13.1 32 Nordeste 45 Nordeste 0 -- -- 77
2018-10-07 08:00:00 13.1 33 Nordeste 40 Norte 0 -- -- 78
2018-10-07 07:00:00 12.9 34 Nordeste 39 Nordeste 0 -- -- 79
2018-10-07 06:00:00 13.1 33 Nordeste 42 Nordeste 0 -- -- 77
2018-10-07 05:00:00 13.2 32 Nordeste 45 Nordeste 0 -- -- 76
2018-10-07 04:00:00 13.2 35 Nordeste 45 Nordeste 0 -- -- 75
2018-10-07 03:00:00 13.2 39 Nordeste 100 Norte 0 -- -- 80
2018-10-07 02:00:00 13.2 40 Norte 46 Norte 0 -- -- 79
2018-10-07 01:00:00 13.3 37 Norte 48 Norte 0 -- -- 75
2018-10-07 00:00:00 13.1 38 Nordeste 46 Norte 0 -- -- 76
2018-10-06 23:00:00 13.2 35 Norte 44 Norte 0 -- -- 76
2018-10-06 22:00:00 13.2 35 Norte 44 Nordeste 0 -- -- 76
2018-10-06 21:00:00 13.2 31 Nordeste 40 Nordeste 0 -- -- 76
2018-10-06 20:00:00 13.4 29 Nordeste 36 Norte 0.1 -- -- 76
2018-10-06 19:00:00 14.3 27 Nordeste 40 Nordeste 0 -- -- 72
2018-10-06 18:00:00 14.7 27 Nordeste 34 Nordeste 0 -- -- 72
2018-10-06 17:00:00 15.4 25 Nordeste 35 Norte 0 -- -- 74
2018-10-06 16:00:00 14.9 20 Norte 30 Norte 0 -- -- 74
2018-10-06 15:00:00 15.7 28 Norte 35 Norte 0 -- -- 76
2018-10-06 14:00:00 15.6 17 Norte 24 Norte 0 -- -- 81
2018-10-06 13:00:00 15.6 13 Norte 22 Norte 0 -- -- 90
2018-10-06 12:00:00 14.1 12 Norte 22 Norte 0 -- -- 96
2018-10-06 11:00:00 12.9 22 Nordeste 51 Norte 0 -- -- 96
2018-10-06 10:00:00 13.4 38 Norte 56 Norte 1 -- -- 96
2018-10-06 09:00:00 15.4 20 Sudoeste 27 Sudoeste 0.2 -- -- 94
2018-10-06 08:00:00 15.2 20 Sudoeste 26 Sur 0 -- -- 94
2018-10-06 07:00:00 15 19 Sur 23 Sur 0 -- -- 94
2018-10-06 06:00:00 14.7 16 Sur 24 Sur 0 -- -- 94
2018-10-06 05:00:00 14.9 21 Sudoeste 26 Sudoeste 0 -- -- 93
2018-10-06 04:00:00 14.8 18 Sur 26 Sur 0 -- -- 91
2018-10-06 03:00:00 14.5 18 Sur 26 Sur 0 -- -- 90
2018-10-06 02:00:00 13.9 15 Sur 21 Sur 0 -- -- 90
2018-10-06 01:00:00 13.8 16 Sur 20 Sur 0 -- -- 93
2018-10-06 00:00:00 14 15 Sur 19 Sur 0 -- -- 92
2018-10-05 23:00:00 14.2 14 Sur 18 Sur 0 -- -- 91
2018-10-05 22:00:00 14.5 14 Sur 18 Sur 0 -- -- 89
2018-10-05 21:00:00 14.3 14 Sur 18 Sur 0 -- -- 87
2018-10-05 20:00:00 15.6 14 Sudoeste 22 Sudoeste 0 -- -- 79
2018-10-05 19:00:00 17.8 16 Sudoeste 21 Sudoeste 0 -- -- 65
2018-10-05 18:00:00 19.3 15 Sudoeste 21 Sudoeste 0 -- -- 59
2018-10-05 17:00:00 19.2 18 Sudoeste 23 Sudoeste 0 -- -- 64
2018-10-05 16:00:00 19.8 19 Sudoeste 27 Sudoeste 0 -- -- 59
2018-10-05 15:00:00 20.1 21 Sudoeste 29 Sudoeste 0 -- -- 62
2018-10-05 14:00:00 19.4 19 Sudoeste 25 Sudoeste 0 -- -- 67
2018-10-05 13:00:00 17.8 17 Sur 21 Sudoeste 0 -- -- 79
2018-10-05 12:00:00 15.8 14 Sudoeste 19 Sur 0 -- -- 93
2018-10-05 11:00:00 14.5 14 Sur 21 Sudoeste 0 -- -- 94
2018-10-05 10:00:00 13.2 15 Sur 22 Sur 0 -- -- 94
2018-10-05 09:00:00 11.9 12 Sudoeste 16 Sur 0 -- -- 90
2018-10-05 08:00:00 12.4 13 Sur 19 Sur 0 -- -- 90
2018-10-05 07:00:00 12.2 13 Sudoeste 17 Sur 0 -- -- 85
2018-10-05 06:00:00 13.2 12 Sur 15 Sur 0 -- -- 68
2018-10-05 05:00:00 13.3 13 Sur 20 Sudoeste 0 -- -- 84
2018-10-05 04:00:00 13.4 13 Sur 17 Sur 0 -- -- 56
2018-10-05 03:00:00 15.8 9 Sur 11 Sur 0 -- -- 52
2018-10-05 02:00:00 16.1 4 Sur 6 Sudeste 0 -- -- 53
2018-10-05 01:00:00 15.5 4 Este 7 Este 0 -- -- 71
2018-10-05 00:00:00 15.6 4 Norte 5 Noroeste 0 -- -- 67
2018-10-04 23:00:00 16.1 0 Calma 6 Nordeste 0 -- -- 62
2018-10-04 22:00:00 15.7 5 Nordeste 6 Nordeste 0 -- -- 67
2018-10-04 21:00:00 16.4 4 Nordeste 7 Nordeste 0 -- -- 67
2018-10-04 20:00:00 19.8 4 Noroeste 7 Noroeste 0 -- -- 45
2018-10-04 19:00:00 22.6 3 Sudoeste 6 Oeste 0 -- -- 45
2018-10-04 18:00:00 22 4 Sudoeste 11 Sudoeste 0 -- -- 44
2018-10-04 17:00:00 21.5 6 Sudoeste 14 Oeste 0 -- -- 44
2018-10-04 16:00:00 22.1 9 Sudoeste 16 Sudoeste 0 -- -- 41
2018-10-04 15:00:00 21.3 12 Sudoeste 19 Sudoeste 0 -- -- 50
2018-10-04 14:00:00 20.6 16 Sudoeste 20 Sudoeste 0 -- -- 50
2018-10-04 13:00:00 21.2 13 Sudoeste 19 Sur 0 -- -- 41
2018-10-04 12:00:00 20.7 10 Sudoeste 13 Sudoeste 0 -- -- 39
2018-10-04 11:00:00 22.9 0 Calma 14 Sudeste 0 -- -- 38
2018-10-04 10:00:00 20 8 Sur 11 Sudeste 0 -- -- 36
2018-10-04 09:00:00 18 8 Sudeste 13 Este 0 -- -- 42
2018-10-04 08:00:00 17.2 7 Este 10 Este 0 -- -- 42
2018-10-04 07:00:00 17.5 4 Sur 9 Sudeste 0 -- -- 40
2018-10-04 06:00:00 17.1 4 Sur 10 Sudoeste 0 -- -- 38
2018-10-04 05:00:00 18.3 5 Sudoeste 6 Sudoeste 0 -- -- 32
2018-10-04 04:00:00 19.1 2 Este 5 Sudeste 0 -- -- 31
2018-10-04 03:00:00 19 3 Este 8 Este 0 -- -- 32
2018-10-04 02:00:00 18.8 9 Este 13 Este 0 -- -- 33
2018-10-04 01:00:00 18.4 7 Este 12 Este 0 -- -- 33
2018-10-04 00:00:00 19.4 0 Calma 6 Sudeste 0 -- -- 33
2018-10-03 23:00:00 19.7 2 Sur 9 Sudeste 0 -- -- 33
2018-10-03 22:00:00 19.9 5 Este 7 Sudeste 0 -- -- 34
2018-10-03 21:00:00 20.1 3 Este 8 Este 0 -- -- 35
2018-10-03 20:00:00 21.6 5 Nordeste 6 Este 0 -- -- 34
2018-10-03 19:00:00 22.9 5 Nordeste 11 Nordeste 0 -- -- 34
2018-10-03 18:00:00 22.5 6 Nordeste 10 Nordeste 0 -- -- 38
2018-10-03 17:00:00 23 6 Nordeste 9 Nordeste 0 -- -- 39
2018-10-03 16:00:00 21.5 3 Norte 8 Oeste 0 -- -- 40
2018-10-03 15:00:00 23.2 3 Norte 14 Sudoeste 0 -- -- 36
2018-10-03 14:00:00 25.7 7 Sudoeste 12 Oeste 0 -- -- 29
2018-10-03 13:00:00 23.4 4 Nordeste 8 Norte 0 -- -- 36
2018-10-03 12:00:00 23.1 2 Sudoeste 9 Sudeste 0 -- -- 42
2018-10-03 11:00:00 19.5 5 Nordeste 13 Sudeste 0 -- -- 45
2018-10-03 10:00:00 17.6 12 Sudeste 16 Sudeste 0 -- -- 48
2018-10-03 09:00:00 14.6 10 Este 19 Sudeste 0 -- -- 55
2018-10-03 08:00:00 14.4 14 Este 24 Sudeste 0 -- -- 57
2018-10-03 07:00:00 13.8 12 Nordeste 27 Este 0 -- -- 61
2018-10-03 06:00:00 14.3 16 Este 23 Este 0 -- -- 61
2018-10-03 05:00:00 13.5 9 Nordeste 13 Este 0 -- -- 68
2018-10-03 04:00:00 13.6 13 Nordeste 17 Nordeste 0 -- -- 65
2018-10-03 03:00:00 13.5 10 Nordeste 22 Nordeste 0 -- -- 68
2018-10-03 02:00:00 13.9 16 Nordeste 22 Nordeste 0 -- -- 66
2018-10-03 01:00:00 14.1 14 Nordeste 22 Nordeste 0 -- -- 65
2018-10-03 00:00:00 14 14 Nordeste 24 Nordeste 0 -- -- 65
2018-10-02 23:00:00 14.5 13 Nordeste 23 Nordeste 0 -- -- 65
2018-10-02 22:00:00 14.8 12 Nordeste 33 Nordeste 0 -- -- 62
2018-10-02 21:00:00 15.8 19 Nordeste 33 Nordeste 0 -- -- 59
2018-10-02 20:00:00 16.1 24 Nordeste 37 Nordeste 0 -- -- 62
2018-10-02 19:00:00 16.3 28 Nordeste 44 Nordeste 0 -- -- 64
2018-10-02 18:00:00 16.4 37 Nordeste 46 Nordeste 0 -- -- 62
2018-10-02 17:00:00 16.7 38 Nordeste 45 Nordeste 0 -- -- 61
2018-10-02 16:00:00 16.5 40 Nordeste 49 Nordeste 0 -- -- 64
2018-10-02 15:00:00 16.5 40 Nordeste 51 Nordeste 0 -- -- 64
2018-10-02 14:00:00 16.1 44 Nordeste 54 Nordeste 0 -- -- 64
2018-10-02 13:00:00 16.5 39 Nordeste 46 Nordeste 0 -- -- 60
2018-10-02 12:00:00 16.2 24 Nordeste 53 Nordeste 0 -- -- 59
2018-10-02 11:00:00 15 23 Nordeste 51 Este 0 -- -- 68
2018-10-02 10:00:00 13.8 26 Nordeste 50 Este 0 -- -- 75
2018-10-02 09:00:00 12.9 27 Nordeste 48 Nordeste 0 -- -- 77
2018-10-02 08:00:00 13.3 30 Nordeste 51 Nordeste 0 -- -- 74
2018-10-02 07:00:00 13.3 28 Nordeste 48 Nordeste 0 -- -- 74
2018-10-02 06:00:00 13.5 28 Nordeste 49 Norte 0 -- -- 74
2018-10-02 05:00:00 13.5 24 Nordeste 50 Nordeste 0 -- -- 70
2018-10-02 04:00:00 13.8 34 Nordeste 70 Nordeste 0 -- -- 70
2018-10-02 03:00:00 14.2 44 Nordeste 68 Nordeste 0 -- -- 70
2018-10-02 02:00:00 14.2 31 Nordeste 58 Nordeste 0 -- -- 72
2018-10-02 01:00:00 14.5 34 Nordeste 62 Nordeste 0 -- -- 72
2018-10-02 00:00:00 14.6 33 Nordeste 64 Nordeste 0 -- -- 72
2018-10-01 23:00:00 14.9 37 Nordeste 67 Nordeste 0 -- -- 72
2018-10-01 22:00:00 14.9 45 Nordeste 73 Nordeste 0 -- -- 74
2018-10-01 21:00:00 14.8 60 Nordeste 77 Nordeste 0 -- -- 74
2018-10-01 20:00:00 14.8 50 Nordeste 79 Nordeste 0 -- -- 74
2018-10-01 19:00:00 15.2 57 Nordeste 75 Nordeste 0 -- -- 74
2018-10-01 18:00:00 15.5 52 Nordeste 75 Nordeste 0 -- -- 72
2018-10-01 17:00:00 16 49 Nordeste 68 Nordeste 0 -- -- 71
2018-10-01 16:00:00 16.3 51 Nordeste 72 Nordeste 0 -- -- 64
2018-10-01 15:00:00 16.4 57 Nordeste 73 Nordeste 0 -- -- 61
2018-10-01 14:00:00 16.3 51 Nordeste 70 Nordeste 0 -- -- 64
2018-10-01 13:00:00 16.2 49 Nordeste 68 Norte 0 -- -- 65
2018-10-01 12:00:00 16.2 46 Nordeste 64 Nordeste 0 -- -- 64
2018-10-01 11:00:00 16 35 Nordeste 52 Nordeste 0 -- -- 74
2018-10-01 10:00:00 15.2 37 Nordeste 55 Nordeste 0 -- -- 72
2018-10-01 09:00:00 14.6 41 Nordeste 52 Nordeste 0 -- -- 80
2018-10-01 08:00:00 15.1 34 Nordeste 62 Nordeste 0 -- -- 67
2018-10-01 07:00:00 15 43 Nordeste 63 Nordeste 0 -- -- 74
2018-10-01 06:00:00 14.6 41 Nordeste 59 Nordeste 0 -- -- 84
2018-10-01 05:00:00 14.7 46 Nordeste 62 Nordeste 0 -- -- 83
2018-10-01 04:00:00 14.9 48 Nordeste 66 Nordeste 0 -- -- 80
2018-10-01 03:00:00 14.8 44 Nordeste 62 Nordeste 0 -- -- 85
2018-10-01 02:00:00 14.8 42 Nordeste 66 Nordeste 0 -- -- 86
2018-10-01 01:00:00 15 39 Nordeste 61 Nordeste 0 -- -- 87
2018-10-01 00:00:00 14.9 42 Nordeste 63 Nordeste 0 -- -- 87
2018-09-30 23:00:00 15.1 46 Nordeste 63 Nordeste 0 -- -- 82
2018-09-30 22:00:00 15.1 49 Nordeste 63 Nordeste 0 -- -- 88
2018-09-30 21:00:00 15 43 Nordeste 60 Nordeste 0 -- -- 89
2018-09-30 20:00:00 15.2 49 Nordeste 55 Nordeste 0 -- -- 90
2018-09-30 19:00:00 15.7 39 Nordeste 53 Nordeste 0 -- -- 84
2018-09-30 18:00:00 16.3 36 Nordeste 53 Norte 0 -- -- 81
2018-09-30 17:00:00 16.4 37 Nordeste 50 Nordeste 0 -- -- 80
2018-09-30 16:00:00 16.7 39 Nordeste 63 Nordeste 0 -- -- 76
2018-09-30 15:00:00 17.4 51 Nordeste 64 Nordeste 0 -- -- 72
2018-09-30 14:00:00 17.3 39 Nordeste 66 Nordeste 0 -- -- 77
2018-09-30 13:00:00 17.2 39 Nordeste 54 Nordeste 0 -- -- 80
2018-09-30 12:00:00 16.5 37 Nordeste 44 Nordeste 0 -- -- 90
2018-09-30 11:00:00 15.8 30 Nordeste 34 Nordeste 0 -- -- 94
2018-09-30 10:00:00 15.4 25 Nordeste 28 Nordeste 0 -- -- 94
2018-09-30 09:00:00 15 24 Nordeste 30 Nordeste 0 -- -- 96
2018-09-30 08:00:00 14.9 24 Nordeste 29 Nordeste 0 -- -- 96
2018-09-30 07:00:00 15.4 13 Nordeste 31 Este 0 -- -- 96
2018-09-30 06:00:00 14.9 16 Nordeste 26 Nordeste 0 -- -- 96
2018-09-30 05:00:00 14.2 10 Nordeste 17 Nordeste 0 -- -- 96
2018-09-30 04:00:00 13.7 10 Nordeste 13 Nordeste 0 -- -- 96
2018-09-30 03:00:00 13.3 3 Norte 8 Nordeste 0 -- -- 96
2018-09-30 02:00:00 13.2 6 Nordeste 8 Nordeste 0 -- -- 96
2018-09-30 01:00:00 13.3 2 Este 9 Nordeste 0 -- -- 96
2018-09-30 00:00:00 13.4 7 Nordeste 9 Norte 0 -- -- 96
2018-09-29 23:00:00 13.8 4 Sur 8 Nordeste 0 -- -- 96
2018-09-29 22:00:00 13.5 0 Calma 9 Sudeste 0 -- -- 96
2018-09-29 21:00:00 13.4 0 Calma 9 Sudeste 0 -- -- 96
2018-09-29 20:00:00 13.2 5 Nordeste 10 Nordeste 0 -- -- 96
2018-09-29 19:00:00 14.1 9 Nordeste 13 Norte 0 -- -- 96
2018-09-29 18:00:00 14.8 11 Nordeste 15 Nordeste 0 -- -- 96
2018-09-29 17:00:00 15.5 6 Norte 10 Norte 0 -- -- 96
2018-09-29 16:00:00 16.1 5 Norte 10 Norte 0 -- -- 96
2018-09-29 15:00:00 16 6 Norte 10 Noroeste 0 -- -- 96
2018-09-29 14:00:00 16 4 Noroeste 9 Noroeste 0 -- -- 96
2018-09-29 13:00:00 15.7 5 Oeste 9 Sur 0 -- -- 96
2018-09-29 12:00:00 15 8 Sudoeste 10 Sudoeste 0 -- -- 96
2018-09-29 11:00:00 14.5 4 Sur 9 Sudoeste 0 -- -- 96
2018-09-29 10:00:00 14.1 3 Sur 9 Sur 0 -- -- 96
2018-09-29 09:00:00 14.2 5 Sur 8 Sudoeste 0.1 -- -- 96
2018-09-29 08:00:00 14.1 4 Sur 18 Sur 0 -- -- 96
2018-09-29 07:00:00 14.3 6 Sudoeste 13 Sudoeste 0 -- -- 96
2018-09-29 06:00:00 14 8 Sudoeste 10 Sudoeste 0 -- -- 96
2018-09-29 05:00:00 15.7 6 Sudeste 14 Este 0 -- -- 96
2018-09-29 04:00:00 15.2 11 Este 16 Este 0 -- -- 96
2018-09-29 03:00:00 14.8 7 Este 12 Este 0 -- -- 96
2018-09-29 02:00:00 13.9 6 Nordeste 16 Nordeste 0 -- -- 96
2018-09-29 01:00:00 14.4 9 Nordeste 18 Nordeste 0 -- -- 96
2018-09-29 00:00:00 14.7 16 Nordeste 19 Nordeste 0 -- -- 96
2018-09-28 23:00:00 15.1 10 Nordeste 13 Nordeste 0 -- -- 96
2018-09-28 22:00:00 15 3 Nordeste 8 Nordeste 0 -- -- 96
2018-09-28 21:00:00 15 6 Norte 15 Norte 0 -- -- 96
2018-09-28 20:00:00 15.1 13 Nordeste 18 Nordeste 0 -- -- 95
2018-09-28 19:00:00 15.3 16 Nordeste 25 Norte 0 -- -- 94
2018-09-28 18:00:00 15.9 19 Nordeste 27 Nordeste 0 -- -- 90
2018-09-28 17:00:00 16.6 21 Nordeste 26 Nordeste 0 -- -- 87
2018-09-28 16:00:00 17 16 Norte 20 Norte 0 -- -- 83
2018-09-28 15:00:00 18.1 13 Norte 16 Norte 0 -- -- 80
2018-09-28 14:00:00 18.1 6 Nordeste 13 Norte 0 -- -- 80
2018-09-28 13:00:00 17.8 5 Nordeste 9 Norte 0 -- -- 83
2018-09-28 12:00:00 16.8 3 Nordeste 6 Nordeste 0 -- -- 85
2018-09-28 11:00:00 16.9 2 Este 6 Sudeste 0 -- -- 90
2018-09-28 10:00:00 15.8 2 Nordeste 12 Sudeste 0 -- -- 92
2018-09-28 09:00:00 14.9 9 Este 12 Este 0 -- -- 92
2018-09-28 08:00:00 14.3 10 Sudeste 13 Sudeste 0 -- -- 92
2018-09-28 07:00:00 14.6 9 Sudeste 11 Sudeste 0 -- -- 90
2018-09-28 06:00:00 15.1 8 Sudeste 10 Sudeste 0 -- -- 88
2018-09-28 05:00:00 15.5 9 Sudeste 10 Sudeste 0 -- -- 87
2018-09-28 04:00:00 16.3 5 Sudeste 10 Sudeste 0 -- -- 85
2018-09-28 03:00:00 16.5 5 Sur 8 Sur 0 -- -- 84
2018-09-28 02:00:00 16.7 5 Sur 10 Sur 0 -- -- 85
2018-09-28 01:00:00 16.9 6 Sur 8 Sur 0 -- -- 87
2018-09-28 00:00:00 16.7 6 Sur 7 Sur 0 -- -- 86
2018-09-27 23:00:00 16.5 5 Sur 10 Sur 0 -- -- 87
2018-09-27 22:00:00 17 9 Sudoeste 14 Sudoeste 0 -- -- 87
2018-09-27 21:00:00 16.8 12 Sur 15 Sudoeste 0 -- -- 87
2018-09-27 20:00:00 17.5 13 Sudoeste 18 Sudoeste 0 -- -- 86
2018-09-27 19:00:00 18.9 14 Sudoeste 18 Sudoeste 0 -- -- 86
2018-09-27 18:00:00 19.2 13 Sudoeste 29 Sudoeste 0 -- -- 91
2018-09-27 17:00:00 17.6 24 Sudoeste 34 Sudoeste 0 -- -- 92
2018-09-27 16:00:00 17.5 28 Sudoeste 36 Sudoeste 0 -- -- 92
2018-09-27 15:00:00 19.5 23 Sudoeste 34 Sudoeste 0 -- -- 84
2018-09-27 14:00:00 19.9 27 Sudoeste 35 Sudoeste 0 -- -- 86
2018-09-27 13:00:00 21.3 24 Sudoeste 32 Sur 0 -- -- 81
2018-09-27 12:00:00 21.2 22 Sur 31 Sur 0 -- -- 88
2018-09-27 11:00:00 19 24 Sur 30 Sur 0 -- -- 96
2018-09-27 10:00:00 18.5 11 Sur 17 Sur 0 -- -- 94
2018-09-27 09:00:00 17.5 15 Sur 22 Sur 0 -- -- 96
2018-09-27 08:00:00 16.5 11 Sudoeste 20 Sudoeste 0 -- -- 94
2018-09-27 07:00:00 15.4 9 Sudoeste 13 Sudoeste 0 -- -- 92
2018-09-27 06:00:00 16.3 4 Sudoeste 8 Sudoeste 0 -- -- 90
2018-09-27 05:00:00 15.6 0 Calma 8 Norte 0 -- -- 87
2018-09-27 04:00:00 18.5 3 Sudoeste 6 Sur 0 -- -- 87
2018-09-27 03:00:00 18.6 3 Sur 14 Sudeste 0 -- -- 84
2018-09-27 02:00:00 19.5 10 Sudeste 14 Sudeste 0 -- -- 84
2018-09-27 01:00:00 18.6 5 Sudeste 8 Sudeste 0 -- -- 79
2018-09-27 00:00:00 18.5 3 Sur 17 Sur 0 -- -- 77
2018-09-26 23:00:00 16.9 4 Nordeste 16 Sur 0 -- -- 75
2018-09-26 22:00:00 18.5 7 Sudoeste 18 Sur 0 -- -- 70
2018-09-26 21:00:00 19 9 Sur 13 Sur 0 -- -- 60
2018-09-26 20:00:00 22.2 4 Oeste 16 Sudoeste 0 -- -- 50
2018-09-26 19:00:00 24.3 9 Sudoeste 32 Sur 0 -- -- 44
2018-09-26 18:00:00 25.6 14 Sur 26 Sur 0 -- -- 42
2018-09-26 17:00:00 21.4 3 Norte 12 Sur 0 -- -- 51
2018-09-26 16:00:00 22 3 Norte 8 Noroeste 0 -- -- 50
2018-09-26 15:00:00 22.3 5 Norte 8 Oeste 0 -- -- 49
2018-09-26 14:00:00 24.7 5 Oeste 12 Sudoeste 0 -- -- 44
2018-09-26 13:00:00 24.4 5 Sudoeste 15 Sur 0 -- -- 45
2018-09-26 12:00:00 23.3 8 Sudoeste 17 Sudeste 0 -- -- 49
2018-09-26 11:00:00 22.8 15 Sudeste 20 Sudeste 0 -- -- 52
2018-09-26 10:00:00 18.3 9 Este 14 Este 0 -- -- 65
2018-09-26 09:00:00 16.6 12 Este 20 Este 0 -- -- 68
2018-09-26 08:00:00 15.7 12 Este 16 Este 0 -- -- 71
2018-09-26 07:00:00 15.2 12 Nordeste 14 Nordeste 0 -- -- 73
2018-09-26 06:00:00 14.8 12 Nordeste 19 Nordeste 0 -- -- 74
2018-09-26 05:00:00 15 15 Nordeste 27 Nordeste 0 -- -- 74
2018-09-26 04:00:00 14.8 19 Nordeste 41 Nordeste 0 -- -- 72
2018-09-26 03:00:00 14.8 23 Nordeste 36 Nordeste 0 -- -- 72
2018-09-26 02:00:00 15.2 25 Nordeste 44 Nordeste 0 -- -- 72
2018-09-26 01:00:00 15.2 28 Nordeste 41 Nordeste 0 -- -- 72
2018-09-26 00:00:00 15.2 26 Nordeste 43 Nordeste 0 -- -- 72
2018-09-25 23:00:00 15.7 25 Nordeste 38 Nordeste 0 -- -- 70
2018-09-25 22:00:00 16.3 26 Nordeste 48 Nordeste 0 -- -- 68
2018-09-25 21:00:00 16.4 30 Nordeste 43 Nordeste 0 -- -- 70
2018-09-25 20:00:00 16.3 34 Nordeste 45 Nordeste 0 -- -- 71
2018-09-25 19:00:00 16.9 39 Nordeste 53 Nordeste 0 -- -- 70
2018-09-25 18:00:00 17.3 42 Nordeste 59 Nordeste 0 -- -- 68
2018-09-25 17:00:00 17.1 49 Nordeste 58 Nordeste 0 -- -- 68
2018-09-25 16:00:00 17 49 Nordeste 58 Nordeste 0 -- -- 67
2018-09-25 15:00:00 17.2 45 Nordeste 52 Nordeste 0 -- -- 67
2018-09-25 14:00:00 17.7 41 Nordeste 49 Nordeste 0 -- -- 64
2018-09-25 13:00:00 17.8 37 Nordeste 53 Nordeste 0 -- -- 59
2018-09-25 12:00:00 17.1 33 Nordeste 52 Nordeste 0 -- -- 42
2018-09-25 11:00:00 16.3 37 Nordeste 51 Nordeste 0 -- -- 44
2018-09-25 10:00:00 15.4 30 Nordeste 50 Nordeste 0 -- -- 47
2018-09-25 09:00:00 14.8 30 Nordeste 57 Nordeste 0 -- -- 50
2018-09-25 08:00:00 14.4 35 Nordeste 57 Nordeste 0 -- -- 53
2018-09-25 07:00:00 14.3 35 Nordeste 59 Nordeste 0 -- -- 54
2018-09-25 06:00:00 14.2 34 Nordeste 58 Nordeste 0 -- -- 54
2018-09-25 05:00:00 14.2 39 Nordeste 63 Nordeste 0 -- -- 55
2018-09-25 04:00:00 14.3 39 Nordeste 62 Nordeste 0 -- -- 56
2018-09-25 03:00:00 14.3 41 Nordeste 59 Nordeste 0 -- -- 57
2018-09-25 02:00:00 14.4 39 Nordeste 61 Nordeste 0 -- -- 58
2018-09-25 01:00:00 14.6 38 Nordeste 75 Nordeste 0 -- -- 58
2018-09-25 00:00:00 14.8 42 Nordeste 69 Nordeste 0 -- -- 61
2018-09-24 23:00:00 15 44 Nordeste 73 Nordeste 0 -- -- 63
2018-09-24 22:00:00 15.1 52 Nordeste 84 Nordeste 0 -- -- 65
2018-09-24 21:00:00 14.9 65 Nordeste 87 Nordeste 0 -- -- 66
2018-09-24 20:00:00 15.1 69 Nordeste 85 Nordeste 0 -- -- 65
2018-09-24 19:00:00 15.6 68 Nordeste 86 Nordeste 0 -- -- 65
2018-09-24 18:00:00 15.9 65 Nordeste 84 Nordeste 0 -- -- 65
2018-09-24 17:00:00 16.3 63 Nordeste 84 Nordeste 0 -- -- 65
2018-09-24 16:00:00 16.4 67 Nordeste 85 Nordeste 0 -- -- 65
2018-09-24 15:00:00 16.8 61 Nordeste 73 Nordeste 0 -- -- 66
2018-09-24 14:00:00 16.9 57 Nordeste 74 Nordeste 0 -- -- 67
2018-09-24 13:00:00 16.5 56 Nordeste 74 Nordeste 0 -- -- 69
2018-09-24 12:00:00 16.5 52 Nordeste 71 Nordeste 0 -- -- 70
2018-09-24 11:00:00 16.1 51 Nordeste 72 Nordeste 0 -- -- 72
2018-09-24 10:00:00 16.1 50 Nordeste 78 Nordeste 0 -- -- 76
2018-09-24 09:00:00 15.5 48 Nordeste 75 Nordeste 0.1 -- -- 81
2018-09-24 08:00:00 15.6 48 Nordeste 78 Nordeste 0 -- -- 80
2018-09-24 07:00:00 15.8 51 Nordeste 74 Nordeste 0 -- -- 80
2018-09-24 06:00:00 15.8 52 Nordeste 76 Nordeste 0 -- -- 80
2018-09-24 05:00:00 16 49 Nordeste 79 Nordeste 0 -- -- 80
2018-09-24 04:00:00 16.1 51 Nordeste 72 Nordeste 0 -- -- 81
2018-09-24 03:00:00 16.4 50 Nordeste 69 Nordeste 0 -- -- 84
2018-09-24 02:00:00 17 35 Nordeste 54 Nordeste 0 -- -- 84
2018-09-24 01:00:00 17.1 32 Nordeste 56 Nordeste 0 -- -- 85
2018-09-24 00:00:00 16.9 34 Nordeste 54 Nordeste 0 -- -- 87
2018-09-23 23:00:00 16.8 37 Nordeste 52 Nordeste 0 -- -- 87
2018-09-23 22:00:00 16.8 38 Nordeste 57 Nordeste 0 -- -- 87
2018-09-23 21:00:00 16.9 37 Nordeste 54 Nordeste 0 -- -- 86
2018-09-23 20:00:00 17.6 24 Nordeste 30 Nordeste 0 -- -- 86
2018-09-23 19:00:00 18.7 19 Nordeste 22 Nordeste 0 -- -- 85
2018-09-23 18:00:00 18.9 19 Nordeste 21 Nordeste 0 -- -- 83
2018-09-23 17:00:00 20 18 Nordeste 20 Nordeste 0 -- -- 79
2018-09-23 16:00:00 20.4 17 Nordeste 19 Norte 0 -- -- 81
2018-09-23 15:00:00 20.7 9 Nordeste 11 Nordeste 0 -- -- 82
2018-09-23 14:00:00 20.2 7 Norte 10 Norte 0 -- -- 81
2018-09-23 13:00:00 19.9 5 Nordeste 8 Norte 0 -- -- 81
2018-09-23 12:00:00 20.6 4 Nordeste 6 Noroeste 0 -- -- 83
2018-09-23 11:00:00 19.8 0 Calma 6 Nordeste 0 -- -- 84
2018-09-23 10:00:00 19 5 Sudeste 9 Sudeste 0 -- -- 84
2018-09-23 09:00:00 18.4 3 Nordeste 9 Nordeste 0 -- -- 84
2018-09-23 08:00:00 18.3 5 Este 9 Este 0 -- -- 84
2018-09-23 07:00:00 18.2 2 Nordeste 10 Nordeste 0 -- -- 84
2018-09-23 06:00:00 18.4 7 Nordeste 9 Nordeste 0 -- -- 85
2018-09-23 05:00:00 18.4 5 Norte 10 Nordeste 0 -- -- 85
2018-09-23 04:00:00 18.6 5 Nordeste 9 Nordeste 0 -- -- 84
2018-09-23 03:00:00 18.6 6 Este 10 Este 0 -- -- 84
2018-09-23 02:00:00 18.6 6 Este 9 Este 0 -- -- 84
2018-09-23 01:00:00 18.3 4 Nordeste 9 Norte 0 -- -- 83
2018-09-23 00:00:00 18.5 5 Norte 10 Norte 0 -- -- 80
2018-09-22 23:00:00 18.3 3 Este 8 Sudeste 0 -- -- 76
2018-09-22 22:00:00 18.8 4 Sur 6 Sudoeste 0 -- -- 74
2018-09-22 21:00:00 18.9 4 Sudoeste 9 Sudoeste 0 -- -- 69
2018-09-22 20:00:00 20.4 6 Sudoeste 11 Sudoeste 0 -- -- 64
2018-09-22 19:00:00 21.4 8 Sudoeste 13 Sudoeste 0 -- -- 63
2018-09-22 18:00:00 21.3 10 Sudoeste 15 Sudoeste 0 -- -- 64
2018-09-22 17:00:00 21.7 11 Sudoeste 16 Sudoeste 0 -- -- 68
2018-09-22 16:00:00 20.8 11 Sudoeste 17 Sudoeste 0 -- -- 72
2018-09-22 15:00:00 20.6 14 Sudoeste 17 Sudoeste 0 -- -- 75
2018-09-22 14:00:00 20.9 11 Sudoeste 15 Sudoeste 0 -- -- 76
2018-09-22 13:00:00 20.9 11 Sudoeste 16 Sudoeste 0 -- -- 81
2018-09-22 12:00:00 19.8 7 Sur 10 Sur 0 -- -- 85
2018-09-22 11:00:00 18.9 8 Sur 13 Sur 0 -- -- 86
2018-09-22 10:00:00 17.4 10 Sur 15 Sur 0 -- -- 86
2018-09-22 09:00:00 16.6 12 Sur 14 Sur 0.1 -- -- 86
2018-09-22 08:00:00 16.2 10 Sur 14 Sur 0 -- -- 86
2018-09-22 07:00:00 16.5 11 Sur 15 Sur 0 -- -- 86
2018-09-22 06:00:00 16.2 10 Sudoeste 14 Sur 0 -- -- 86
2018-09-22 05:00:00 16.5 7 Sur 15 Sudeste 0 -- -- 86
2018-09-22 04:00:00 17 13 Sudeste 18 Sudeste 0 -- -- 86
2018-09-22 03:00:00 17.4 9 Sur 12 Sur 0 -- -- 86
2018-09-22 02:00:00 17.7 8 Sur 14 Sur 0 -- -- 86
2018-09-22 01:00:00 17.9 8 Sur 13 Sur 0 -- -- 86
2018-09-22 00:00:00 18 7 Sur 12 Sur 0 -- -- 86
2018-09-21 23:00:00 17.9 3 Sudoeste 6 Oeste 0 -- -- 86
2018-09-21 22:00:00 17.6 0 Calma 3 Nordeste 0 -- -- 86
2018-09-21 21:00:00 17.7 0 Calma 3 Sur 0.1 -- -- 86
2018-09-21 20:00:00 17.5 0 Calma 7 Noroeste 0.1 -- -- 86
2018-09-21 19:00:00 17.9 3 Nordeste 13 Nordeste 0 -- -- 86
2018-09-21 18:00:00 17.1 7 Nordeste 12 Nordeste 0 -- -- 86
2018-09-21 17:00:00 17.2 5 Nordeste 17 Nordeste 0.1 -- -- 86
2018-09-21 16:00:00 16.7 7 Norte 15 Sudeste 0 -- -- 86
2018-09-21 15:00:00 18.7 9 Este 21 Nordeste 0.1 -- -- 86
2018-09-21 14:00:00 16.6 14 Nordeste 21 Nordeste 0 -- -- 86
2018-09-21 13:00:00 16.5 18 Nordeste 22 Nordeste 0 -- -- 86
2018-09-21 12:00:00 16.2 8 Nordeste 17 Nordeste 0.3 -- -- 86
2018-09-21 11:00:00 16.1 14 Nordeste 19 Nordeste 0.3 -- -- 86
2018-09-21 10:00:00 16.4 3 Norte 26 Sudoeste 1 -- -- 86
2018-09-21 09:00:00 17.7 22 Sudoeste 30 Sudoeste 0.9 -- -- 86
2018-09-21 08:00:00 18 19 Sur 30 Sur 4 -- -- 85
2018-09-21 07:00:00 17.9 21 Sur 34 Sur 0.2 -- -- 85
2018-09-21 06:00:00 18 26 Sur 33 Sudoeste 0 -- -- 84
2018-09-21 05:00:00 17.9 26 Sur 33 Sur 0 -- -- 84
2018-09-21 04:00:00 17.9 24 Sur 35 Sudoeste 0 -- -- 84
2018-09-21 03:00:00 17.9 24 Sur 34 Sur 0 -- -- 84
2018-09-21 02:00:00 17.6 24 Sudoeste 33 Sur 0 -- -- 84
2018-09-21 01:00:00 17.9 27 Sur 36 Sur 0 -- -- 84
2018-09-21 00:00:00 18 25 Sur 35 Sur 0 -- -- 84
2018-09-20 23:00:00 18.1 26 Sudoeste 36 Sudoeste 0 -- -- 83
2018-09-20 22:00:00 18 27 Sur 42 Sur 0 -- -- 82
2018-09-20 21:00:00 18.1 28 Sudoeste 39 Sur 0 -- -- 79
2018-09-20 20:00:00 19.3 26 Sur 36 Sur 0 -- -- 73
2018-09-20 19:00:00 19.3 26 Sur 36 Sur 0 -- -- 69
2018-09-20 18:00:00 20.3 27 Sur 39 Sudoeste 0 -- -- 65
2018-09-20 17:00:00 20.9 32 Sudoeste 43 Sudoeste 0 -- -- 65
2018-09-20 16:00:00 21 31 Sudoeste 41 Sudoeste 0 -- -- 60
2018-09-20 15:00:00 21.3 30 Sudoeste 40 Sudoeste 0 -- -- 61
2018-09-20 14:00:00 20.8 28 Sudoeste 36 Sudoeste 0 -- -- 62
2018-09-20 13:00:00 21.2 22 Sudoeste 29 Sur 0 -- -- 69
2018-09-20 12:00:00 18.4 20 Sudoeste 26 Sudoeste 0 -- -- 84
2018-09-20 11:00:00 17.4 18 Sur 27 Sur 0 -- -- 86
2018-09-20 10:00:00 16.8 16 Sur 19 Sur 0 -- -- 86
2018-09-20 09:00:00 15.2 17 Sur 22 Sur 0.1 -- -- 86
2018-09-20 08:00:00 15.3 16 Sur 21 Sur 0 -- -- 86
2018-09-20 07:00:00 15.2 17 Sur 21 Sur 0 -- -- 86
2018-09-20 06:00:00 14.8 13 Sur 16 Sudoeste 0 -- -- 86
2018-09-20 05:00:00 14.1 13 Sur 15 Sur 0 -- -- 86
2018-09-20 04:00:00 14.5 12 Sur 16 Sur 0 -- -- 86
2018-09-20 03:00:00 15.4 10 Sur 13 Sur 0 -- -- 85
2018-09-20 02:00:00 15.9 10 Sur 14 Sur 0 -- -- 85
2018-09-20 01:00:00 15.6 8 Sur 15 Sur 0 -- -- 84
2018-09-20 00:00:00 16.2 10 Sur 18 Sur 0 -- -- 84